sensor_id;sensor_type;location;lat;lon;timestamp;P1;durP1;ratioP1;P2;durP2;ratioP2
64244;SDS011;50584;29.058;-110.966;2022-09-27T00:00:01;6.07;;;1.40;;
64244;SDS011;50584;29.058;-110.966;2022-09-27T00:02:27;5.63;;;2.00;;
64244;SDS011;50584;29.058;-110.966;2022-09-27T00:04:53;6.47;;;2.40;;
64244;SDS011;50584;29.058;-110.966;2022-09-27T00:07:19;11.15;;;2.50;;
64244;SDS011;50584;29.058;-110.966;2022-09-27T00:09:45;9.45;;;1.55;;
64244;SDS011;50584;29.058;-110.966;2022-09-27T00:12:11;11.07;;;1.65;;
64244;SDS011;50584;29.058;-110.966;2022-09-27T00:14:37;6.75;;;1.42;;
64244;SDS011;50584;29.058;-110.966;2022-09-27T00:17:03;8.95;;;1.85;;
64244;SDS011;50584;29.058;-110.966;2022-09-27T00:19:28;3.80;;;1.70;;
64244;SDS011;50584;29.058;-110.966;2022-09-27T00:21:55;4.00;;;1.67;;
64244;SDS011;50584;29.058;-110.966;2022-09-27T00:24:21;8.48;;;1.30;;
64244;SDS011;50584;29.058;-110.966;2022-09-27T00:26:47;4.28;;;1.60;;
64244;SDS011;50584;29.058;-110.966;2022-09-27T00:29:14;7.13;;;1.80;;
64244;SDS011;50584;29.058;-110.966;2022-09-27T00:31:40;3.97;;;1.40;;
64244;SDS011;50584;29.058;-110.966;2022-09-27T00:34:07;3.53;;;1.58;;
64244;SDS011;50584;29.058;-110.966;2022-09-27T00:36:35;7.35;;;1.60;;
64244;SDS011;50584;29.058;-110.966;2022-09-27T00:39:02;9.80;;;1.30;;
64244;SDS011;50584;29.058;-110.966;2022-09-27T00:43:54;5.90;;;1.75;;
64244;SDS011;50584;29.058;-110.966;2022-09-27T00:46:25;8.18;;;1.60;;
64244;SDS011;50584;29.058;-110.966;2022-09-27T00:49:35;6.65;;;1.40;;
64244;SDS011;50584;29.058;-110.966;2022-09-27T00:51:41;2.92;;;1.13;;
64244;SDS011;50584;29.058;-110.966;2022-09-27T00:54:10;5.85;;;1.45;;
64244;SDS011;50584;29.058;-110.966;2022-09-27T00:56:36;5.45;;;1.30;;
64244;SDS011;50584;29.058;-110.966;2022-09-27T00:59:08;7.63;;;1.83;;
64244;SDS011;50584;29.058;-110.966;2022-09-27T01:01:36;8.23;;;1.50;;
64244;SDS011;50584;29.058;-110.966;2022-09-27T01:04:05;3.97;;;1.73;;
64244;SDS011;50584;29.058;-110.966;2022-09-27T01:06:31;4.78;;;1.50;;
64244;SDS011;50584;29.058;-110.966;2022-09-27T01:08:57;6.40;;;1.65;;
64244;SDS011;50584;29.058;-110.966;2022-09-27T01:24:24;6.93;;;1.60;;
64244;SDS011;50584;29.058;-110.966;2022-09-27T01:29:50;6.38;;;2.00;;
64244;SDS011;50584;29.058;-110.966;2022-09-27T01:37:49;5.68;;;2.22;;
64244;SDS011;50584;29.058;-110.966;2022-09-27T01:40:22;5.50;;;1.67;;
64244;SDS011;50584;29.058;-110.966;2022-09-27T01:43:12;4.20;;;1.90;;
64244;SDS011;50584;29.058;-110.966;2022-09-27T01:45:47;6.63;;;1.70;;
64244;SDS011;50584;29.058;-110.966;2022-09-27T01:50:48;7.07;;;1.83;;
64244;SDS011;50584;29.058;-110.966;2022-09-27T01:53:20;4.03;;;1.63;;
64244;SDS011;50584;29.058;-110.966;2022-09-27T01:55:47;3.90;;;1.70;;
64244;SDS011;50584;29.058;-110.966;2022-09-27T01:58:16;16.73;;;2.05;;
64244;SDS011;50584;29.058;-110.966;2022-09-27T02:00:44;7.60;;;1.95;;
64244;SDS011;50584;29.058;-110.966;2022-09-27T02:03:53;9.82;;;1.70;;
64244;SDS011;50584;29.058;-110.966;2022-09-27T02:06:10;6.65;;;1.80;;
64244;SDS011;50584;29.058;-110.966;2022-09-27T02:08:42;5.53;;;2.33;;
64244;SDS011;50584;29.058;-110.966;2022-09-27T02:11:10;6.93;;;2.00;;
64244;SDS011;50584;29.058;-110.966;2022-09-27T02:14:24;7.10;;;2.22;;
64244;SDS011;50584;29.058;-110.966;2022-09-27T02:24:18;9.00;;;2.70;;
64244;SDS011;50584;29.058;-110.966;2022-09-27T02:26:45;5.70;;;2.55;;
64244;SDS011;50584;29.058;-110.966;2022-09-27T02:29:18;12.23;;;3.05;;
64244;SDS011;50584;29.058;-110.966;2022-09-27T02:31:45;9.10;;;3.55;;
64244;SDS011;50584;29.058;-110.966;2022-09-27T02:36:36;10.77;;;3.15;;
64244;SDS011;50584;29.058;-110.966;2022-09-27T02:39:05;21.00;;;3.67;;
64244;SDS011;50584;29.058;-110.966;2022-09-27T02:41:31;12.45;;;3.50;;
64244;SDS011;50584;29.058;-110.966;2022-09-27T02:43:58;15.73;;;3.00;;
64244;SDS011;50584;29.058;-110.966;2022-09-27T02:46:38;10.50;;;3.15;;
64244;SDS011;50584;29.058;-110.966;2022-09-27T02:49:34;13.77;;;3.40;;
64244;SDS011;50584;29.058;-110.966;2022-09-27T03:00:00;11.07;;;2.40;;
64244;SDS011;50584;29.058;-110.966;2022-09-27T03:07:52;7.50;;;2.80;;
64244;SDS011;50584;29.058;-110.966;2022-09-27T03:10:19;22.52;;;3.15;;
64244;SDS011;50584;29.058;-110.966;2022-09-27T03:12:45;8.65;;;3.40;;
64244;SDS011;50584;29.058;-110.966;2022-09-27T03:15:11;12.65;;;3.78;;
64244;SDS011;50584;29.058;-110.966;2022-09-27T03:17:38;7.60;;;3.60;;
64244;SDS011;50584;29.058;-110.966;2022-09-27T03:20:04;11.38;;;3.88;;
64244;SDS011;50584;29.058;-110.966;2022-09-27T03:22:31;12.35;;;4.40;;
64244;SDS011;50584;29.058;-110.966;2022-09-27T03:24:57;6.93;;;4.30;;
64244;SDS011;50584;29.058;-110.966;2022-09-27T03:27:25;5.70;;;4.88;;
64244;SDS011;50584;29.058;-110.966;2022-09-27T03:29:51;13.05;;;5.13;;
64244;SDS011;50584;29.058;-110.966;2022-09-27T03:32:16;9.25;;;4.88;;
64244;SDS011;50584;29.058;-110.966;2022-09-27T03:34:43;10.85;;;5.03;;
64244;SDS011;50584;29.058;-110.966;2022-09-27T03:37:09;10.48;;;5.53;;
64244;SDS011;50584;29.058;-110.966;2022-09-27T03:39:35;14.15;;;5.95;;
64244;SDS011;50584;29.058;-110.966;2022-09-27T03:42:01;9.77;;;5.78;;
64244;SDS011;50584;29.058;-110.966;2022-09-27T03:44:26;16.95;;;6.15;;
64244;SDS011;50584;29.058;-110.966;2022-09-27T03:46:52;13.93;;;6.38;;
64244;SDS011;50584;29.058;-110.966;2022-09-27T03:49:18;15.65;;;5.60;;
64244;SDS011;50584;29.058;-110.966;2022-09-27T03:51:44;16.38;;;6.03;;
64244;SDS011;50584;29.058;-110.966;2022-09-27T03:54:10;8.90;;;6.30;;
64244;SDS011;50584;29.058;-110.966;2022-09-27T03:56:36;20.45;;;8.35;;
64244;SDS011;50584;29.058;-110.966;2022-09-27T03:59:02;18.90;;;7.50;;
64244;SDS011;50584;29.058;-110.966;2022-09-27T04:01:27;20.75;;;7.55;;
64244;SDS011;50584;29.058;-110.966;2022-09-27T04:03:53;13.50;;;7.45;;
64244;SDS011;50584;29.058;-110.966;2022-09-27T04:06:19;19.65;;;7.95;;
64244;SDS011;50584;29.058;-110.966;2022-09-27T04:08:45;17.17;;;8.45;;
64244;SDS011;50584;29.058;-110.966;2022-09-27T04:11:11;20.35;;;8.27;;
64244;SDS011;50584;29.058;-110.966;2022-09-27T04:13:38;18.25;;;7.88;;
64244;SDS011;50584;29.058;-110.966;2022-09-27T04:16:04;19.23;;;6.68;;
64244;SDS011;50584;29.058;-110.966;2022-09-27T04:18:29;15.02;;;6.18;;
64244;SDS011;50584;29.058;-110.966;2022-09-27T04:20:55;13.30;;;6.10;;
64244;SDS011;50584;29.058;-110.966;2022-09-27T04:23:21;15.27;;;6.20;;
64244;SDS011;50584;29.058;-110.966;2022-09-27T04:25:48;18.38;;;6.03;;
64244;SDS011;50584;29.058;-110.966;2022-09-27T04:28:14;19.92;;;6.80;;
64244;SDS011;50584;29.058;-110.966;2022-09-27T04:30:40;18.77;;;6.75;;
64244;SDS011;50584;29.058;-110.966;2022-09-27T04:33:06;13.70;;;6.90;;
64244;SDS011;50584;29.058;-110.966;2022-09-27T04:35:32;18.48;;;7.45;;
64244;SDS011;50584;29.058;-110.966;2022-09-27T04:38:16;10.75;;;6.38;;
64244;SDS011;50584;29.058;-110.966;2022-09-27T04:40:44;22.67;;;6.63;;
64244;SDS011;50584;29.058;-110.966;2022-09-27T04:43:11;24.15;;;6.85;;
64244;SDS011;50584;29.058;-110.966;2022-09-27T04:45:37;19.50;;;6.50;;
64244;SDS011;50584;29.058;-110.966;2022-09-27T04:48:03;13.23;;;5.72;;
64244;SDS011;50584;29.058;-110.966;2022-09-27T04:50:28;23.63;;;6.85;;
64244;SDS011;50584;29.058;-110.966;2022-09-27T04:52:54;12.98;;;6.50;;
64244;SDS011;50584;29.058;-110.966;2022-09-27T04:55:20;16.95;;;5.78;;
64244;SDS011;50584;29.058;-110.966;2022-09-27T04:57:47;13.93;;;6.07;;
64244;SDS011;50584;29.058;-110.966;2022-09-27T05:00:13;13.77;;;5.15;;
64244;SDS011;50584;29.058;-110.966;2022-09-27T05:02:41;20.83;;;5.30;;
64244;SDS011;50584;29.058;-110.966;2022-09-27T05:05:07;12.02;;;4.35;;
64244;SDS011;50584;29.058;-110.966;2022-09-27T05:07:33;17.17;;;4.78;;
64244;SDS011;50584;29.058;-110.966;2022-09-27T05:09:59;17.38;;;4.50;;
64244;SDS011;50584;29.058;-110.966;2022-09-27T05:12:25;14.43;;;4.35;;
64244;SDS011;50584;29.058;-110.966;2022-09-27T05:14:51;14.80;;;5.32;;
64244;SDS011;50584;29.058;-110.966;2022-09-27T05:17:17;27.77;;;5.97;;
64244;SDS011;50584;29.058;-110.966;2022-09-27T05:19:45;18.08;;;5.43;;
64244;SDS011;50584;29.058;-110.966;2022-09-27T05:22:11;17.20;;;4.40;;
64244;SDS011;50584;29.058;-110.966;2022-09-27T05:24:37;17.52;;;3.70;;
64244;SDS011;50584;29.058;-110.966;2022-09-27T05:27:03;12.75;;;3.70;;
64244;SDS011;50584;29.058;-110.966;2022-09-27T05:29:32;16.17;;;3.72;;
64244;SDS011;50584;29.058;-110.966;2022-09-27T05:31:59;18.02;;;4.40;;
64244;SDS011;50584;29.058;-110.966;2022-09-27T05:34:25;13.75;;;4.28;;
64244;SDS011;50584;29.058;-110.966;2022-09-27T05:36:51;26.48;;;4.97;;
64244;SDS011;50584;29.058;-110.966;2022-09-27T05:39:17;12.70;;;5.35;;
64244;SDS011;50584;29.058;-110.966;2022-09-27T05:41:43;14.98;;;3.95;;
64244;SDS011;50584;29.058;-110.966;2022-09-27T05:44:09;16.63;;;4.03;;
64244;SDS011;50584;29.058;-110.966;2022-09-27T05:46:35;11.40;;;3.90;;
64244;SDS011;50584;29.058;-110.966;2022-09-27T05:49:01;18.58;;;3.75;;
64244;SDS011;50584;29.058;-110.966;2022-09-27T05:51:26;15.30;;;3.30;;
64244;SDS011;50584;29.058;-110.966;2022-09-27T05:53:52;15.00;;;3.55;;
64244;SDS011;50584;29.058;-110.966;2022-09-27T05:56:18;12.73;;;4.32;;
64244;SDS011;50584;29.058;-110.966;2022-09-27T05:58:44;11.50;;;3.20;;
64244;SDS011;50584;29.058;-110.966;2022-09-27T06:01:10;7.25;;;3.10;;
64244;SDS011;50584;29.058;-110.966;2022-09-27T06:03:36;7.97;;;2.83;;
64244;SDS011;50584;29.058;-110.966;2022-09-27T06:06:02;8.63;;;2.70;;
64244;SDS011;50584;29.058;-110.966;2022-09-27T06:08:33;6.93;;;2.45;;
64244;SDS011;50584;29.058;-110.966;2022-09-27T06:11:04;8.73;;;2.20;;
64244;SDS011;50584;29.058;-110.966;2022-09-27T06:13:30;2.58;;;1.80;;
64244;SDS011;50584;29.058;-110.966;2022-09-27T06:15:58;1.92;;;1.40;;
64244;SDS011;50584;29.058;-110.966;2022-09-27T06:18:24;1.55;;;1.40;;
64244;SDS011;50584;29.058;-110.966;2022-09-27T06:20:50;3.80;;;1.40;;
64244;SDS011;50584;29.058;-110.966;2022-09-27T06:23:17;1.25;;;1.17;;
64244;SDS011;50584;29.058;-110.966;2022-09-27T06:25:43;5.35;;;1.20;;
64244;SDS011;50584;29.058;-110.966;2022-09-27T06:28:09;2.13;;;1.10;;
64244;SDS011;50584;29.058;-110.966;2022-09-27T06:30:39;1.13;;;1.13;;
64244;SDS011;50584;29.058;-110.966;2022-09-27T06:33:05;1.27;;;1.10;;
64244;SDS011;50584;29.058;-110.966;2022-09-27T06:35:33;1.55;;;1.27;;
64244;SDS011;50584;29.058;-110.966;2022-09-27T06:38:01;1.00;;;1.00;;
64244;SDS011;50584;29.058;-110.966;2022-09-27T06:40:27;1.13;;;1.00;;
64244;SDS011;50584;29.058;-110.966;2022-09-27T06:42:53;1.95;;;1.02;;
64244;SDS011;50584;29.058;-110.966;2022-09-27T06:45:19;3.25;;;1.00;;
64244;SDS011;50584;29.058;-110.966;2022-09-27T06:47:44;2.15;;;1.10;;
64244;SDS011;50584;29.058;-110.966;2022-09-27T06:50:11;5.30;;;0.90;;
64244;SDS011;50584;29.058;-110.966;2022-09-27T06:52:37;4.13;;;1.10;;
64244;SDS011;50584;29.058;-110.966;2022-09-27T06:55:03;4.57;;;1.10;;
64244;SDS011;50584;29.058;-110.966;2022-09-27T06:57:29;3.60;;;1.50;;
64244;SDS011;50584;29.058;-110.966;2022-09-27T07:00:14;2.80;;;1.20;;
64244;SDS011;50584;29.058;-110.966;2022-09-27T07:02:49;2.15;;;1.90;;
64244;SDS011;50584;29.058;-110.966;2022-09-27T07:05:17;3.17;;;1.15;;
64244;SDS011;50584;29.058;-110.966;2022-09-27T07:07:43;6.63;;;1.60;;
64244;SDS011;50584;29.058;-110.966;2022-09-27T07:10:10;3.38;;;1.63;;
64244;SDS011;50584;29.058;-110.966;2022-09-27T07:12:35;1.27;;;1.20;;
64244;SDS011;50584;29.058;-110.966;2022-09-27T07:15:02;2.00;;;1.70;;
64244;SDS011;50584;29.058;-110.966;2022-09-27T07:17:28;1.55;;;1.45;;
64244;SDS011;50584;29.058;-110.966;2022-09-27T07:19:54;1.50;;;1.40;;
64244;SDS011;50584;29.058;-110.966;2022-09-27T07:22:20;6.25;;;1.52;;
64244;SDS011;50584;29.058;-110.966;2022-09-27T07:24:45;1.95;;;1.35;;
64244;SDS011;50584;29.058;-110.966;2022-09-27T07:27:11;3.25;;;1.50;;
64244;SDS011;50584;29.058;-110.966;2022-09-27T07:29:37;4.65;;;1.40;;
64244;SDS011;50584;29.058;-110.966;2022-09-27T07:32:03;4.00;;;1.52;;
64244;SDS011;50584;29.058;-110.966;2022-09-27T07:34:29;2.38;;;1.45;;
64244;SDS011;50584;29.058;-110.966;2022-09-27T07:36:58;3.22;;;1.70;;
64244;SDS011;50584;29.058;-110.966;2022-09-27T07:39:24;3.60;;;1.80;;
64244;SDS011;50584;29.058;-110.966;2022-09-27T07:41:49;5.43;;;1.98;;
64244;SDS011;50584;29.058;-110.966;2022-09-27T07:44:15;5.10;;;2.05;;
64244;SDS011;50584;29.058;-110.966;2022-09-27T07:46:42;4.18;;;1.88;;
64244;SDS011;50584;29.058;-110.966;2022-09-27T07:49:08;3.00;;;1.85;;
64244;SDS011;50584;29.058;-110.966;2022-09-27T07:51:33;4.07;;;2.30;;
64244;SDS011;50584;29.058;-110.966;2022-09-27T07:53:59;2.60;;;1.85;;
64244;SDS011;50584;29.058;-110.966;2022-09-27T07:56:28;5.70;;;2.00;;
64244;SDS011;50584;29.058;-110.966;2022-09-27T07:58:54;3.42;;;1.70;;
64244;SDS011;50584;29.058;-110.966;2022-09-27T08:01:20;4.18;;;1.80;;
64244;SDS011;50584;29.058;-110.966;2022-09-27T08:03:46;5.60;;;1.73;;
64244;SDS011;50584;29.058;-110.966;2022-09-27T08:06:12;2.08;;;1.63;;
64244;SDS011;50584;29.058;-110.966;2022-09-27T08:08:37;2.58;;;1.50;;
64244;SDS011;50584;29.058;-110.966;2022-09-27T08:11:10;4.63;;;2.03;;
64244;SDS011;50584;29.058;-110.966;2022-09-27T08:13:38;2.50;;;1.70;;
64244;SDS011;50584;29.058;-110.966;2022-09-27T08:16:04;2.83;;;1.80;;
64244;SDS011;50584;29.058;-110.966;2022-09-27T08:18:30;1.90;;;1.65;;
64244;SDS011;50584;29.058;-110.966;2022-09-27T08:20:56;6.82;;;1.67;;
64244;SDS011;50584;29.058;-110.966;2022-09-27T08:23:22;1.60;;;1.50;;
64244;SDS011;50584;29.058;-110.966;2022-09-27T08:25:52;1.80;;;1.70;;
64244;SDS011;50584;29.058;-110.966;2022-09-27T08:28:18;3.90;;;1.33;;
64244;SDS011;50584;29.058;-110.966;2022-09-27T08:30:44;3.25;;;1.40;;
64244;SDS011;50584;29.058;-110.966;2022-09-27T08:33:10;1.88;;;1.73;;
64244;SDS011;50584;29.058;-110.966;2022-09-27T08:35:35;5.57;;;1.80;;
64244;SDS011;50584;29.058;-110.966;2022-09-27T08:38:01;1.52;;;1.25;;
64244;SDS011;50584;29.058;-110.966;2022-09-27T08:43:00;1.77;;;1.42;;
64244;SDS011;50584;29.058;-110.966;2022-09-27T08:45:28;6.63;;;1.17;;
64244;SDS011;50584;29.058;-110.966;2022-09-27T08:47:57;1.48;;;1.27;;
64244;SDS011;50584;29.058;-110.966;2022-09-27T08:50:39;3.88;;;1.67;;
64244;SDS011;50584;29.058;-110.966;2022-09-27T08:53:13;1.52;;;1.30;;
64244;SDS011;50584;29.058;-110.966;2022-09-27T08:55:43;1.40;;;1.30;;
64244;SDS011;50584;29.058;-110.966;2022-09-27T09:00:51;1.50;;;1.40;;
64244;SDS011;50584;29.058;-110.966;2022-09-27T09:03:20;3.55;;;1.33;;
64244;SDS011;50584;29.058;-110.966;2022-09-27T09:06:03;1.33;;;1.25;;
64244;SDS011;50584;29.058;-110.966;2022-09-27T09:08:49;3.42;;;1.50;;
64244;SDS011;50584;29.058;-110.966;2022-09-27T09:14:26;1.83;;;1.33;;
64244;SDS011;50584;29.058;-110.966;2022-09-27T09:19:38;1.52;;;1.42;;
64244;SDS011;50584;29.058;-110.966;2022-09-27T09:24:42;1.58;;;1.42;;
64244;SDS011;50584;29.058;-110.966;2022-09-27T09:27:23;2.85;;;1.60;;
64244;SDS011;50584;29.058;-110.966;2022-09-27T09:35:14;2.58;;;1.25;;
64244;SDS011;50584;29.058;-110.966;2022-09-27T09:40:18;2.38;;;1.42;;
64244;SDS011;50584;29.058;-110.966;2022-09-27T09:42:51;3.05;;;1.52;;
64244;SDS011;50584;29.058;-110.966;2022-09-27T09:45:27;2.00;;;1.77;;
64244;SDS011;50584;29.058;-110.966;2022-09-27T09:48:14;1.60;;;1.50;;
64244;SDS011;50584;29.058;-110.966;2022-09-27T09:50:48;4.80;;;1.75;;
64244;SDS011;50584;29.058;-110.966;2022-09-27T09:53:17;2.20;;;1.50;;
64244;SDS011;50584;29.058;-110.966;2022-09-27T09:55:45;2.53;;;1.65;;
64244;SDS011;50584;29.058;-110.966;2022-09-27T09:58:19;3.53;;;1.90;;
64244;SDS011;50584;29.058;-110.966;2022-09-27T10:00:46;5.03;;;1.60;;
64244;SDS011;50584;29.058;-110.966;2022-09-27T10:03:13;8.60;;;1.50;;
64244;SDS011;50584;29.058;-110.966;2022-09-27T10:05:38;2.30;;;1.60;;
64244;SDS011;50584;29.058;-110.966;2022-09-27T10:08:10;2.78;;;1.63;;
64244;SDS011;50584;29.058;-110.966;2022-09-27T10:10:37;4.28;;;1.55;;
64244;SDS011;50584;29.058;-110.966;2022-09-27T10:13:04;1.70;;;1.60;;
64244;SDS011;50584;29.058;-110.966;2022-09-27T10:15:30;6.95;;;1.80;;
64244;SDS011;50584;29.058;-110.966;2022-09-27T10:17:56;1.98;;;1.80;;
64244;SDS011;50584;29.058;-110.966;2022-09-27T10:20:29;3.97;;;1.50;;
64244;SDS011;50584;29.058;-110.966;2022-09-27T10:23:02;1.70;;;1.60;;
64244;SDS011;50584;29.058;-110.966;2022-09-27T10:25:45;3.72;;;1.70;;
64244;SDS011;50584;29.058;-110.966;2022-09-27T10:28:25;1.70;;;1.60;;
64244;SDS011;50584;29.058;-110.966;2022-09-27T10:30:54;1.60;;;1.50;;
64244;SDS011;50584;29.058;-110.966;2022-09-27T10:33:20;1.63;;;1.52;;
64244;SDS011;50584;29.058;-110.966;2022-09-27T10:35:47;1.70;;;1.60;;
64244;SDS011;50584;29.058;-110.966;2022-09-27T10:40:58;2.88;;;1.42;;
64244;SDS011;50584;29.058;-110.966;2022-09-27T10:43:39;6.60;;;1.80;;
64244;SDS011;50584;29.058;-110.966;2022-09-27T10:46:09;1.77;;;1.58;;
64244;SDS011;50584;29.058;-110.966;2022-09-27T10:48:36;1.70;;;1.60;;
64244;SDS011;50584;29.058;-110.966;2022-09-27T10:51:04;1.80;;;1.70;;
64244;SDS011;50584;29.058;-110.966;2022-09-27T10:53:31;1.90;;;1.60;;
64244;SDS011;50584;29.058;-110.966;2022-09-27T10:55:58;5.75;;;1.50;;
64244;SDS011;50584;29.058;-110.966;2022-09-27T10:58:34;4.05;;;2.40;;
64244;SDS011;50584;29.058;-110.966;2022-09-27T11:01:05;2.80;;;1.77;;
64244;SDS011;50584;29.058;-110.966;2022-09-27T11:03:34;2.25;;;1.67;;
64244;SDS011;50584;29.058;-110.966;2022-09-27T11:06:17;2.17;;;1.48;;
64244;SDS011;50584;29.058;-110.966;2022-09-27T11:08:43;1.70;;;1.60;;
64244;SDS011;50584;29.058;-110.966;2022-09-27T11:11:16;1.60;;;1.50;;
64244;SDS011;50584;29.058;-110.966;2022-09-27T11:18:50;7.18;;;2.15;;
64244;SDS011;50584;29.058;-110.966;2022-09-27T11:21:46;2.83;;;1.80;;
64244;SDS011;50584;29.058;-110.966;2022-09-27T11:24:14;4.30;;;2.05;;
64244;SDS011;50584;29.058;-110.966;2022-09-27T11:26:50;4.35;;;1.90;;
64244;SDS011;50584;29.058;-110.966;2022-09-27T11:29:24;2.30;;;1.70;;
64244;SDS011;50584;29.058;-110.966;2022-09-27T11:42:30;5.38;;;1.70;;
64244;SDS011;50584;29.058;-110.966;2022-09-27T11:50:55;1.90;;;1.80;;
64244;SDS011;50584;29.058;-110.966;2022-09-27T12:01:02;3.22;;;1.80;;
64244;SDS011;50584;29.058;-110.966;2022-09-27T12:06:12;1.77;;;1.67;;
64244;SDS011;50584;29.058;-110.966;2022-09-27T12:11:14;1.67;;;1.58;;
64244;SDS011;50584;29.058;-110.966;2022-09-27T12:13:44;3.92;;;1.90;;
64244;SDS011;50584;29.058;-110.966;2022-09-27T12:16:11;3.17;;;1.85;;
64244;SDS011;50584;29.058;-110.966;2022-09-27T12:18:39;2.28;;;1.90;;
64244;SDS011;50584;29.058;-110.966;2022-09-27T12:21:06;2.20;;;2.00;;
64244;SDS011;50584;29.058;-110.966;2022-09-27T12:26:02;4.03;;;2.08;;
64244;SDS011;50584;29.058;-110.966;2022-09-27T12:31:01;3.50;;;1.90;;
64244;SDS011;50584;29.058;-110.966;2022-09-27T12:33:36;2.15;;;1.60;;
64244;SDS011;50584;29.058;-110.966;2022-09-27T12:36:04;3.42;;;1.80;;
64244;SDS011;50584;29.058;-110.966;2022-09-27T12:41:00;2.65;;;1.98;;
64244;SDS011;50584;29.058;-110.966;2022-09-27T12:43:27;2.55;;;1.77;;
64244;SDS011;50584;29.058;-110.966;2022-09-27T12:48:28;5.47;;;2.10;;
64244;SDS011;50584;29.058;-110.966;2022-09-27T12:51:11;3.00;;;2.00;;
64244;SDS011;50584;29.058;-110.966;2022-09-27T12:53:46;5.30;;;2.53;;
64244;SDS011;50584;29.058;-110.966;2022-09-27T12:58:51;5.75;;;2.50;;
64244;SDS011;50584;29.058;-110.966;2022-09-27T13:06:24;3.03;;;2.13;;
64244;SDS011;50584;29.058;-110.966;2022-09-27T13:11:44;6.78;;;2.38;;
64244;SDS011;50584;29.058;-110.966;2022-09-27T13:14:16;5.68;;;2.30;;
64244;SDS011;50584;29.058;-110.966;2022-09-27T13:16:43;6.47;;;2.35;;
64244;SDS011;50584;29.058;-110.966;2022-09-27T13:26:59;5.18;;;1.70;;
64244;SDS011;50584;29.058;-110.966;2022-09-27T13:29:27;4.40;;;2.30;;
64244;SDS011;50584;29.058;-110.966;2022-09-27T13:37:26;9.20;;;2.53;;
64244;SDS011;50584;29.058;-110.966;2022-09-27T13:40:09;11.10;;;2.28;;
64244;SDS011;50584;29.058;-110.966;2022-09-27T13:42:39;8.57;;;2.38;;
64244;SDS011;50584;29.058;-110.966;2022-09-27T13:45:16;7.45;;;1.77;;
64244;SDS011;50584;29.058;-110.966;2022-09-27T13:47:45;6.38;;;2.22;;
64244;SDS011;50584;29.058;-110.966;2022-09-27T13:50:32;9.63;;;2.10;;
64244;SDS011;50584;29.058;-110.966;2022-09-27T13:53:07;7.90;;;2.00;;
64244;SDS011;50584;29.058;-110.966;2022-09-27T13:55:41;5.30;;;2.00;;
64244;SDS011;50584;29.058;-110.966;2022-09-27T14:00:52;3.92;;;2.00;;
64244;SDS011;50584;29.058;-110.966;2022-09-27T14:05:49;4.10;;;1.60;;
64244;SDS011;50584;29.058;-110.966;2022-09-27T14:08:36;5.13;;;2.15;;
64244;SDS011;50584;29.058;-110.966;2022-09-27T14:11:04;3.03;;;1.98;;
64244;SDS011;50584;29.058;-110.966;2022-09-27T14:13:35;7.07;;;1.80;;
64244;SDS011;50584;29.058;-110.966;2022-09-27T14:16:03;4.70;;;1.80;;
64244;SDS011;50584;29.058;-110.966;2022-09-27T14:18:29;7.82;;;1.90;;
64244;SDS011;50584;29.058;-110.966;2022-09-27T14:21:11;7.57;;;1.63;;
64244;SDS011;50584;29.058;-110.966;2022-09-27T14:23:39;2.70;;;1.90;;
64244;SDS011;50584;29.058;-110.966;2022-09-27T14:26:18;7.15;;;2.05;;
64244;SDS011;50584;29.058;-110.966;2022-09-27T14:28:45;6.60;;;2.13;;
64244;SDS011;50584;29.058;-110.966;2022-09-27T14:31:20;2.80;;;1.70;;
64244;SDS011;50584;29.058;-110.966;2022-09-27T14:33:47;7.15;;;2.10;;
64244;SDS011;50584;29.058;-110.966;2022-09-27T14:36:19;4.00;;;1.80;;
64244;SDS011;50584;29.058;-110.966;2022-09-27T14:39:11;8.60;;;1.88;;
64244;SDS011;50584;29.058;-110.966;2022-09-27T14:41:37;4.10;;;2.10;;
64244;SDS011;50584;29.058;-110.966;2022-09-27T14:44:03;5.63;;;2.00;;
64244;SDS011;50584;29.058;-110.966;2022-09-27T14:46:30;2.45;;;1.67;;
64244;SDS011;50584;29.058;-110.966;2022-09-27T14:48:56;7.13;;;2.10;;
64244;SDS011;50584;29.058;-110.966;2022-09-27T14:51:28;4.10;;;1.88;;
64244;SDS011;50584;29.058;-110.966;2022-09-27T14:53:55;7.70;;;1.90;;
64244;SDS011;50584;29.058;-110.966;2022-09-27T14:56:29;10.30;;;1.95;;
64244;SDS011;50584;29.058;-110.966;2022-09-27T14:59:01;10.35;;;1.92;;
64244;SDS011;50584;29.058;-110.966;2022-09-27T15:01:28;9.32;;;2.08;;
64244;SDS011;50584;29.058;-110.966;2022-09-27T15:03:55;7.68;;;1.80;;
64244;SDS011;50584;29.058;-110.966;2022-09-27T15:06:21;7.18;;;1.88;;
64244;SDS011;50584;29.058;-110.966;2022-09-27T15:08:49;8.38;;;1.80;;
64244;SDS011;50584;29.058;-110.966;2022-09-27T15:11:16;6.32;;;2.00;;
64244;SDS011;50584;29.058;-110.966;2022-09-27T15:13:43;5.35;;;2.10;;
64244;SDS011;50584;29.058;-110.966;2022-09-27T15:16:16;5.00;;;2.17;;
64244;SDS011;50584;29.058;-110.966;2022-09-27T15:18:45;3.40;;;2.00;;
64244;SDS011;50584;29.058;-110.966;2022-09-27T15:21:12;11.93;;;2.10;;
64244;SDS011;50584;29.058;-110.966;2022-09-27T15:23:42;8.88;;;2.10;;
64244;SDS011;50584;29.058;-110.966;2022-09-27T15:28:35;7.60;;;2.00;;
64244;SDS011;50584;29.058;-110.966;2022-09-27T15:31:03;5.47;;;1.80;;
64244;SDS011;50584;29.058;-110.966;2022-09-27T15:33:32;4.25;;;1.73;;
64244;SDS011;50584;29.058;-110.966;2022-09-27T15:36:03;2.28;;;1.80;;
64244;SDS011;50584;29.058;-110.966;2022-09-27T15:38:31;8.35;;;1.90;;
64244;SDS011;50584;29.058;-110.966;2022-09-27T15:45:54;1.70;;;1.60;;
64244;SDS011;50584;29.058;-110.966;2022-09-27T15:48:21;6.85;;;1.88;;
64244;SDS011;50584;29.058;-110.966;2022-09-27T15:50:47;9.82;;;2.00;;
64244;SDS011;50584;29.058;-110.966;2022-09-27T15:55:58;5.88;;;1.85;;
64244;SDS011;50584;29.058;-110.966;2022-09-27T15:58:24;10.05;;;2.20;;
64244;SDS011;50584;29.058;-110.966;2022-09-27T16:00:51;3.15;;;2.72;;
64244;SDS011;50584;29.058;-110.966;2022-09-27T16:03:17;6.03;;;2.35;;
64244;SDS011;50584;29.058;-110.966;2022-09-27T16:05:43;18.27;;;12.02;;
64244;SDS011;50584;29.058;-110.966;2022-09-27T16:08:09;17.67;;;3.92;;
64244;SDS011;50584;29.058;-110.966;2022-09-27T16:10:39;7.15;;;4.03;;
64244;SDS011;50584;29.058;-110.966;2022-09-27T16:13:06;9.30;;;4.15;;
64244;SDS011;50584;29.058;-110.966;2022-09-27T16:15:32;3.30;;;2.67;;
64244;SDS011;50584;29.058;-110.966;2022-09-27T16:17:58;2.15;;;1.65;;
64244;SDS011;50584;29.058;-110.966;2022-09-27T16:20:25;13.95;;;2.40;;
64244;SDS011;50584;29.058;-110.966;2022-09-27T16:22:51;4.28;;;1.80;;
64244;SDS011;50584;29.058;-110.966;2022-09-27T16:25:18;3.40;;;2.20;;
64244;SDS011;50584;29.058;-110.966;2022-09-27T16:27:44;9.05;;;2.00;;
64244;SDS011;50584;29.058;-110.966;2022-09-27T16:30:10;4.63;;;1.92;;
64244;SDS011;50584;29.058;-110.966;2022-09-27T16:32:40;1.90;;;1.80;;
64244;SDS011;50584;29.058;-110.966;2022-09-27T16:35:06;1.98;;;1.80;;
64244;SDS011;50584;29.058;-110.966;2022-09-27T16:37:33;1.77;;;1.60;;
64244;SDS011;50584;29.058;-110.966;2022-09-27T16:39:59;3.72;;;1.80;;
64244;SDS011;50584;29.058;-110.966;2022-09-27T16:42:25;2.20;;;1.92;;
64244;SDS011;50584;29.058;-110.966;2022-09-27T16:44:54;8.85;;;2.05;;
64244;SDS011;50584;29.058;-110.966;2022-09-27T16:47:20;2.35;;;1.58;;
64244;SDS011;50584;29.058;-110.966;2022-09-27T16:49:46;8.00;;;1.90;;
64244;SDS011;50584;29.058;-110.966;2022-09-27T16:52:30;1.95;;;1.48;;